Newcastle, Wyoming
Current Conditions -  °F | °C
As of 8:55 PM on Friday 24 Oct 2014 (Local Time) from KECS Reporting Station
Clear Clear  
Wind Chill: 10°   Ceiling: Unl
Heat Index: 10°   Visibility: 10mi
Dew Point:   Wind: 0mph
Humidity: 50%   Direction: NA
Pressure: 30.1"   Gusts: NA
Location:  43.85°N, 104.2°W
Report Text: KECS 250255Z AUTO 00000KT 10SM CLR 10/00 A3010 RMK AO2
Loading
Personal Weather Stations






























Interactive Weather Map
Tropical Storm Tracking
New forecast layout! Learn more

10-Day Weather Forecast

Advertisements
Track Severe Weather on mobile